createdAt,value
2022-12-15T00:00:11.648Z,10.53
2022-12-15T00:02:57.307Z,10.43
2022-12-15T00:05:42.603Z,10.50
2022-12-15T00:08:29.090Z,10.97
2022-12-15T00:11:15.000Z,10.60
2022-12-15T00:14:02.426Z,11.37
2022-12-15T00:16:47.852Z,10.10
2022-12-15T00:19:33.360Z,10.97
2022-12-15T00:22:18.862Z,10.10
2022-12-15T00:25:04.298Z,10.27
2022-12-15T00:27:50.004Z,9.73
2022-12-15T00:30:36.846Z,10.80
2022-12-15T00:33:26.960Z,10.63
2022-12-15T00:36:12.301Z,11.37
2022-12-15T00:38:46.172Z,10.70
2022-12-15T00:41:15.598Z,11.13
2022-12-15T00:43:43.765Z,11.10
2022-12-15T00:46:30.937Z,10.07
2022-12-15T00:48:59.318Z,10.60
2022-12-15T00:51:45.103Z,10.40
2022-12-15T00:54:30.613Z,12.43
2022-12-15T00:57:16.109Z,11.67
2022-12-15T01:00:01.492Z,10.20
2022-12-15T01:02:48.524Z,11.17
2022-12-15T01:05:34.040Z,11.97
2022-12-15T01:08:19.483Z,12.43
2022-12-15T01:11:05.041Z,13.20
2022-12-15T01:13:50.546Z,11.73
2022-12-15T01:16:36.305Z,12.90
2022-12-15T01:19:23.241Z,13.40
2022-12-15T01:21:51.124Z,13.13
2022-12-15T01:24:19.001Z,13.37
2022-12-15T01:26:46.852Z,14.23
2022-12-15T01:29:14.736Z,13.60
2022-12-15T01:31:44.107Z,14.27
2022-12-15T01:34:13.457Z,14.20
2022-12-15T01:36:41.319Z,15.33
2022-12-15T01:39:09.407Z,15.40
2022-12-15T01:41:36.289Z,16.73
2022-12-15T01:44:21.658Z,17.63
2022-12-15T01:46:52.646Z,16.70
2022-12-15T01:49:27.590Z,16.57
2022-12-15T01:51:59.794Z,16.23
2022-12-15T01:54:31.010Z,15.47
2022-12-15T01:57:03.388Z,15.60
2022-12-15T01:59:34.459Z,16.77
2022-12-15T02:02:03.355Z,16.43
2022-12-15T02:04:33.648Z,16.20
2022-12-15T02:07:01.505Z,17.13
2022-12-15T02:09:30.038Z,15.73
2022-12-15T02:12:02.769Z,15.97
2022-12-15T02:14:46.769Z,17.37
2022-12-15T02:17:23.293Z,18.00
2022-12-15T02:20:18.901Z,17.83
2022-12-15T02:23:08.127Z,17.10
2022-12-15T02:26:13.361Z,16.23
2022-12-15T02:28:53.461Z,16.27
2022-12-15T02:31:42.966Z,16.80
2022-12-15T02:34:15.689Z,18.00
2022-12-15T02:36:46.355Z,17.30
2022-12-15T02:39:15.048Z,18.20
2022-12-15T02:41:44.871Z,17.70
2022-12-15T02:44:17.873Z,15.43
2022-12-15T02:47:00.105Z,16.13
2022-12-15T02:49:39.358Z,17.27
2022-12-15T02:52:18.950Z,17.60
2022-12-15T02:55:04.553Z,16.00
2022-12-15T02:57:41.921Z,16.20
2022-12-15T03:00:12.053Z,15.00
2022-12-15T03:02:45.523Z,16.07
2022-12-15T03:05:15.051Z,16.13
2022-12-15T03:07:43.678Z,14.90
2022-12-15T03:10:14.492Z,16.90
2022-12-15T03:12:42.437Z,15.80
2022-12-15T03:15:11.149Z,14.50
2022-12-15T03:17:39.014Z,16.50
2022-12-15T03:20:09.883Z,16.57
2022-12-15T03:22:38.152Z,15.70
2022-12-15T03:25:06.794Z,14.17
2022-12-15T03:27:36.030Z,14.80
2022-12-15T03:30:04.528Z,17.37
2022-12-15T03:32:32.451Z,14.80
2022-12-15T03:35:01.032Z,15.90
2022-12-15T03:37:30.275Z,15.93
2022-12-15T03:39:58.142Z,17.40
2022-12-15T03:42:39.909Z,15.40
2022-12-15T03:45:08.452Z,15.20
2022-12-15T03:47:36.294Z,16.67
2022-12-15T03:50:04.449Z,16.90
2022-12-15T03:52:33.641Z,16.47
2022-12-15T03:55:01.491Z,17.37
2022-12-15T03:57:29.303Z,16.53
2022-12-15T03:59:57.144Z,16.70
2022-12-15T04:02:25.070Z,18.60
2022-12-15T04:04:53.084Z,16.97
2022-12-15T04:07:20.903Z,16.90
2022-12-15T04:09:51.173Z,16.90
2022-12-15T04:12:19.018Z,16.77
2022-12-15T04:14:46.856Z,16.97
2022-12-15T04:17:17.462Z,17.07
2022-12-15T04:20:02.986Z,16.07
2022-12-15T04:22:30.839Z,15.63
2022-12-15T04:25:17.873Z,16.70
2022-12-15T04:28:03.150Z,17.87
2022-12-15T04:30:49.818Z,17.47
2022-12-15T04:33:36.238Z,17.87
2022-12-15T04:36:21.945Z,18.67
2022-12-15T04:39:07.432Z,19.73
2022-12-15T04:41:54.067Z,17.40
2022-12-15T04:44:39.647Z,20.30
2022-12-15T04:47:25.229Z,18.43
2022-12-15T04:50:10.732Z,18.70
2022-12-15T04:52:56.126Z,17.80
2022-12-15T04:55:41.561Z,18.57
2022-12-15T04:58:29.363Z,19.03
2022-12-15T05:01:16.527Z,17.80
2022-12-15T05:04:01.895Z,16.93
2022-12-15T05:06:47.169Z,19.00
2022-12-15T05:09:32.649Z,18.60
2022-12-15T05:12:18.043Z,17.40
2022-12-15T05:15:04.827Z,18.00
2022-12-15T05:17:50.295Z,17.13
2022-12-15T05:20:35.932Z,18.30
2022-12-15T05:23:21.321Z,18.37
2022-12-15T05:26:06.723Z,17.97
2022-12-15T05:28:52.180Z,18.50
2022-12-15T05:31:38.836Z,18.93
2022-12-15T05:34:06.936Z,18.93
2022-12-15T05:36:34.820Z,19.07
2022-12-15T05:39:02.751Z,19.77
2022-12-15T05:41:30.689Z,20.00
2022-12-15T05:43:58.525Z,19.23
2022-12-15T05:46:27.823Z,18.00
2022-12-15T05:48:55.689Z,19.87
2022-12-15T05:51:23.593Z,18.57
2022-12-15T05:53:51.534Z,17.93
2022-12-15T05:56:19.474Z,18.70
2022-12-15T05:58:47.311Z,17.57
2022-12-15T06:01:16.799Z,17.47
2022-12-15T06:03:46.069Z,18.30
2022-12-15T06:06:14.783Z,19.70
2022-12-15T06:08:44.028Z,20.63
2022-12-15T06:11:13.602Z,19.90
2022-12-15T06:13:42.394Z,18.90
2022-12-15T06:16:13.728Z,19.70
2022-12-15T06:18:43.293Z,20.27
2022-12-15T06:21:21.046Z,18.63
2022-12-15T06:23:49.134Z,17.63
2022-12-15T06:26:19.499Z,20.83
2022-12-15T06:28:47.557Z,20.30
2022-12-15T06:31:15.724Z,21.87
2022-12-15T06:33:44.034Z,19.00
2022-12-15T06:36:13.794Z,19.00
2022-12-15T06:38:44.110Z,19.60
2022-12-15T06:41:13.869Z,21.00
2022-12-15T06:43:42.340Z,20.17
2022-12-15T06:46:11.064Z,21.50
2022-12-15T06:48:39.643Z,21.30
2022-12-15T06:51:15.095Z,20.07
2022-12-15T06:53:48.924Z,19.93
2022-12-15T06:56:21.831Z,20.87
2022-12-15T06:58:53.574Z,22.27
2022-12-15T07:01:22.461Z,20.40
2022-12-15T07:03:51.229Z,19.97
2022-12-15T07:06:19.785Z,21.77
2022-12-15T07:08:53.280Z,19.57
2022-12-15T07:11:22.519Z,20.10
2022-12-15T07:13:50.749Z,20.80
2022-12-15T07:16:19.453Z,22.00
2022-12-15T07:18:47.414Z,20.03
2022-12-15T07:21:15.676Z,21.43
2022-12-15T07:23:54.725Z,21.00
2022-12-15T07:26:25.999Z,20.63
2022-12-15T07:28:54.487Z,20.93
2022-12-15T07:31:23.811Z,19.73
2022-12-15T07:33:54.367Z,20.70
2022-12-15T07:36:22.251Z,20.50
2022-12-15T07:38:51.214Z,21.70
2022-12-15T07:41:20.507Z,21.67
2022-12-15T07:43:50.280Z,22.17
2022-12-15T07:46:18.909Z,21.03
2022-12-15T07:48:50.927Z,22.97
2022-12-15T07:51:21.089Z,23.10
2022-12-15T07:53:50.480Z,23.13
2022-12-15T07:56:21.914Z,22.03
2022-12-15T07:58:52.206Z,23.37
2022-12-15T08:01:20.327Z,24.27
2022-12-15T08:03:49.857Z,22.87
2022-12-15T08:06:17.867Z,24.13
2022-12-15T08:08:50.719Z,22.83
2022-12-15T08:11:20.569Z,23.60
2022-12-15T08:14:05.748Z,24.77
2022-12-15T08:16:37.790Z,24.10
2022-12-15T08:19:06.316Z,23.97
2022-12-15T08:21:34.703Z,23.70
2022-12-15T08:24:02.731Z,24.70
2022-12-15T08:26:31.674Z,25.10
2022-12-15T08:29:40.602Z,25.03
2022-12-15T08:31:54.101Z,24.50
2022-12-15T08:34:22.220Z,23.37
2022-12-15T08:36:50.191Z,25.50
2022-12-15T08:39:18.192Z,25.17
2022-12-15T08:41:46.153Z,26.03
2022-12-15T08:44:14.021Z,26.30
2022-12-15T08:46:41.914Z,26.10
2022-12-15T08:49:15.243Z,24.00
2022-12-15T08:51:45.857Z,26.37
2022-12-15T08:54:20.263Z,25.63
2022-12-15T08:56:48.159Z,27.30
2022-12-15T08:59:16.304Z,26.77
2022-12-15T09:01:44.357Z,26.23
2022-12-15T09:04:13.657Z,27.80
2022-12-15T09:06:41.708Z,25.83
2022-12-15T09:09:12.486Z,25.63
2022-12-15T09:11:41.082Z,25.97
2022-12-15T09:14:08.966Z,27.50
2022-12-15T09:16:36.948Z,26.17
2022-12-15T09:19:05.155Z,26.23
2022-12-15T09:21:34.385Z,27.37
2022-12-15T09:24:03.351Z,27.97
2022-12-15T09:26:33.818Z,28.17
2022-12-15T09:29:02.779Z,26.83
2022-12-15T09:31:33.438Z,26.13
2022-12-15T09:34:02.528Z,26.57
2022-12-15T09:36:32.593Z,26.63
2022-12-15T09:39:03.519Z,28.17
2022-12-15T09:41:33.489Z,27.53
2022-12-15T09:44:04.916Z,27.83
2022-12-15T09:46:43.166Z,27.47
2022-12-15T09:49:19.543Z,27.87
2022-12-15T09:51:52.680Z,26.17
2022-12-15T09:54:23.189Z,27.30
2022-12-15T09:56:55.910Z,26.20
2022-12-15T09:59:32.302Z,27.90
2022-12-15T10:02:18.736Z,27.47
2022-12-15T10:04:55.693Z,27.03
2022-12-15T10:07:31.089Z,27.33
2022-12-15T10:10:00.390Z,28.87
2022-12-15T10:12:34.195Z,28.50
2022-12-15T10:15:11.572Z,28.03
2022-12-15T10:17:48.523Z,27.80
2022-12-15T10:20:21.359Z,28.27
2022-12-15T10:22:50.467Z,26.80
2022-12-15T10:25:29.701Z,24.50
2022-12-15T10:28:11.979Z,27.70
2022-12-15T10:30:46.888Z,27.43
2022-12-15T10:33:20.265Z,28.07
2022-12-15T10:35:48.938Z,27.10
2022-12-15T10:38:25.386Z,27.20
2022-12-15T10:40:56.696Z,27.67
2022-12-15T10:43:30.523Z,26.40
2022-12-15T10:46:04.407Z,28.07
2022-12-15T10:48:32.511Z,27.37
2022-12-15T10:51:20.189Z,27.50
2022-12-15T10:53:50.589Z,27.47
2022-12-15T10:56:28.802Z,29.07
2022-12-15T10:59:00.677Z,27.60
2022-12-15T11:01:30.218Z,28.27
2022-12-15T11:03:58.777Z,27.40
2022-12-15T11:06:28.345Z,27.43
2022-12-15T11:08:58.570Z,30.50
2022-12-15T11:11:50.265Z,28.97
2022-12-15T11:14:23.493Z,28.63
2022-12-15T11:16:54.407Z,27.93
2022-12-15T11:19:31.507Z,27.87
2022-12-15T11:22:05.857Z,29.57
2022-12-15T11:24:39.670Z,27.57
2022-12-15T11:27:15.434Z,29.10
2022-12-15T11:29:55.805Z,28.63
2022-12-15T11:32:26.831Z,31.10
2022-12-15T11:34:55.180Z,28.10
2022-12-15T11:37:37.779Z,28.50
2022-12-15T11:40:29.557Z,29.10
2022-12-15T11:43:15.365Z,26.77
2022-12-15T11:45:52.134Z,27.97
2022-12-15T11:48:22.720Z,28.70
2022-12-15T11:50:57.147Z,28.80
2022-12-15T11:53:44.939Z,27.53
2022-12-15T11:56:21.551Z,27.37
2022-12-15T11:59:09.679Z,28.80
2022-12-15T12:02:00.769Z,28.00
2022-12-15T12:04:38.042Z,28.73
2022-12-15T12:07:15.996Z,27.20
2022-12-15T12:09:56.287Z,29.33
2022-12-15T12:12:30.828Z,28.50
2022-12-15T12:15:16.477Z,26.17
2022-12-15T12:17:49.015Z,29.27
2022-12-15T12:20:20.913Z,27.23
2022-12-15T12:23:02.279Z,27.50
2022-12-15T12:25:34.328Z,27.37
2022-12-15T12:28:06.531Z,28.57
2022-12-15T12:30:43.575Z,28.10
2022-12-15T12:33:26.084Z,28.60
2022-12-15T12:35:58.885Z,27.40
2022-12-15T12:38:36.084Z,29.27
2022-12-15T12:41:08.960Z,28.87
2022-12-15T12:43:39.069Z,29.13
2022-12-15T12:46:16.985Z,29.27
2022-12-15T12:48:50.449Z,30.13
2022-12-15T12:51:25.746Z,27.73
2022-12-15T12:53:54.138Z,30.03
2022-12-15T12:56:36.230Z,29.40
2022-12-15T12:59:08.705Z,26.83
2022-12-15T13:01:38.946Z,27.33
2022-12-15T13:04:36.295Z,29.37
2022-12-15T13:07:27.044Z,27.63
2022-12-15T13:10:13.646Z,26.27
2022-12-15T13:12:52.943Z,27.90
2022-12-15T13:15:36.060Z,28.90
2022-12-15T13:18:07.762Z,28.30
2022-12-15T13:20:38.171Z,29.33
2022-12-15T13:23:41.338Z,30.40
2022-12-15T13:26:19.350Z,26.07
2022-12-15T13:28:51.585Z,28.07
2022-12-15T13:31:44.196Z,29.37
2022-12-15T13:34:21.578Z,29.43
2022-12-15T13:36:58.087Z,28.90
2022-12-15T13:39:58.391Z,29.60
2022-12-15T13:42:45.325Z,28.60
2022-12-15T13:45:51.810Z,28.50
2022-12-15T13:48:27.615Z,25.77
2022-12-15T13:51:03.523Z,29.97
2022-12-15T13:53:38.934Z,29.80
2022-12-15T13:56:39.952Z,28.70
2022-12-15T13:59:16.392Z,28.90
2022-12-15T14:01:50.899Z,27.80
2022-12-15T14:04:20.620Z,27.50
2022-12-15T14:06:51.461Z,26.47
2022-12-15T14:09:24.008Z,27.20
2022-12-15T14:11:54.315Z,27.40
2022-12-15T14:14:25.592Z,29.27
2022-12-15T14:17:02.490Z,27.57
2022-12-15T14:19:41.722Z,26.37
2022-12-15T14:22:28.744Z,31.03
2022-12-15T14:25:03.394Z,30.30
2022-12-15T14:27:34.506Z,31.03
2022-12-15T14:30:29.230Z,28.93
2022-12-15T14:33:00.643Z,33.27
2022-12-15T14:35:32.243Z,30.90
2022-12-15T14:38:02.796Z,32.87
2022-12-15T14:40:31.831Z,31.73
2022-12-15T14:43:01.408Z,33.80
2022-12-15T14:45:32.868Z,33.17
2022-12-15T14:48:40.144Z,34.10
2022-12-15T14:50:55.848Z,33.33
2022-12-15T14:53:31.917Z,33.17
2022-12-15T14:56:12.683Z,32.83
2022-12-15T14:58:42.681Z,33.70
2022-12-15T15:01:26.007Z,36.00
2022-12-15T15:04:01.930Z,31.90
2022-12-15T15:06:34.104Z,32.27
2022-12-15T15:09:14.035Z,35.20
2022-12-15T15:11:43.665Z,31.90
2022-12-15T15:14:18.254Z,31.27
2022-12-15T15:16:46.796Z,32.47
2022-12-15T15:19:21.830Z,32.37
2022-12-15T15:21:50.474Z,35.43
2022-12-15T15:24:24.865Z,32.50
2022-12-15T15:26:53.360Z,34.00
2022-12-15T15:29:40.971Z,34.03
2022-12-15T15:32:16.880Z,35.00
2022-12-15T15:34:47.042Z,34.93
2022-12-15T15:37:19.498Z,35.47
2022-12-15T15:39:49.456Z,35.30
2022-12-15T15:42:17.526Z,34.70
2022-12-15T15:44:46.737Z,33.80
2022-12-15T15:47:22.128Z,33.80
2022-12-15T15:49:50.681Z,36.13
2022-12-15T15:52:18.583Z,36.17
2022-12-15T15:54:47.107Z,33.30
2022-12-15T15:57:16.257Z,36.00
2022-12-15T15:59:44.585Z,34.80
2022-12-15T16:02:15.612Z,35.33
2022-12-15T16:04:45.624Z,31.77
2022-12-15T16:07:20.304Z,33.83
2022-12-15T16:09:48.186Z,32.63
2022-12-15T16:12:27.473Z,33.77
2022-12-15T16:14:55.929Z,35.43
2022-12-15T16:17:25.459Z,34.80
2022-12-15T16:19:53.344Z,34.57
2022-12-15T16:22:22.920Z,30.47
2022-12-15T16:24:50.781Z,34.00
2022-12-15T16:27:18.670Z,33.40
2022-12-15T16:29:46.515Z,33.17
2022-12-15T16:32:14.331Z,32.67
2022-12-15T16:34:43.514Z,30.70
2022-12-15T16:37:25.614Z,32.10
2022-12-15T16:39:53.548Z,33.57
2022-12-15T16:42:21.389Z,35.97
2022-12-15T16:44:49.192Z,34.40
2022-12-15T16:47:17.110Z,34.00
2022-12-15T16:49:46.275Z,33.57
2022-12-15T16:52:20.563Z,35.43
2022-12-15T16:54:50.036Z,34.23
2022-12-15T16:57:18.417Z,34.63
2022-12-15T16:59:46.297Z,32.93
2022-12-15T17:02:27.091Z,33.80
2022-12-15T17:04:56.649Z,36.00
2022-12-15T17:07:26.121Z,35.50
2022-12-15T17:09:54.017Z,33.20
2022-12-15T17:12:21.868Z,33.30
2022-12-15T17:14:49.728Z,33.50
2022-12-15T17:17:19.857Z,33.47
2022-12-15T17:20:19.672Z,33.60
2022-12-15T17:22:38.738Z,33.40
2022-12-15T17:25:10.891Z,34.33
2022-12-15T17:27:38.816Z,33.97
2022-12-15T17:30:11.874Z,34.00
2022-12-15T17:32:39.776Z,32.30
2022-12-15T17:35:08.386Z,36.27
2022-12-15T17:37:36.252Z,35.53
2022-12-15T17:40:15.552Z,35.40
2022-12-15T17:42:43.696Z,33.97
2022-12-15T17:45:17.005Z,31.90
2022-12-15T17:47:45.123Z,33.10
2022-12-15T17:50:14.418Z,34.70
2022-12-15T17:52:43.835Z,33.57
2022-12-15T17:55:23.473Z,36.40
2022-12-15T17:57:51.853Z,34.43
2022-12-15T18:00:23.924Z,31.90
2022-12-15T18:02:51.942Z,34.73
2022-12-15T18:05:21.150Z,34.03
2022-12-15T18:07:52.033Z,33.20
2022-12-15T18:10:31.098Z,33.20
2022-12-15T18:12:59.724Z,32.70
2022-12-15T18:15:29.682Z,31.27
2022-12-15T18:17:58.113Z,31.27
2022-12-15T18:20:26.704Z,32.10
2022-12-15T18:22:55.814Z,33.30
2022-12-15T18:25:26.246Z,32.20
2022-12-15T18:27:56.302Z,32.30
2022-12-15T18:30:25.912Z,33.33
2022-12-15T18:32:57.415Z,31.67
2022-12-15T18:35:30.198Z,35.23
2022-12-15T18:37:58.035Z,32.40
2022-12-15T18:40:29.732Z,31.33
2022-12-15T18:42:58.917Z,29.77
2022-12-15T18:45:28.415Z,31.33
2022-12-15T18:47:56.334Z,31.90
2022-12-15T18:50:26.241Z,30.63
2022-12-15T18:52:58.483Z,29.67
2022-12-15T18:55:28.661Z,31.80
2022-12-15T18:57:58.781Z,29.70
2022-12-15T19:00:28.486Z,31.80
2022-12-15T19:02:59.926Z,31.50
2022-12-15T19:05:29.483Z,31.67
2022-12-15T19:08:01.610Z,31.57
2022-12-15T19:10:32.753Z,31.47
2022-12-15T19:13:02.128Z,32.70
2022-12-15T19:15:30.179Z,30.80
2022-12-15T19:18:15.628Z,28.83
2022-12-15T19:21:01.483Z,30.40
2022-12-15T19:23:29.454Z,31.43
2022-12-15T19:25:57.666Z,29.40
2022-12-15T19:28:26.815Z,27.97
2022-12-15T19:30:54.641Z,31.67
2022-12-15T19:33:23.424Z,29.80
2022-12-15T19:35:54.788Z,28.93
2022-12-15T19:38:25.858Z,29.87
2022-12-15T19:40:55.084Z,30.37
2022-12-15T19:43:24.279Z,31.07
2022-12-15T19:45:53.940Z,31.83
2022-12-15T19:48:24.143Z,30.20
2022-12-15T19:50:54.774Z,30.30
2022-12-15T19:53:26.250Z,28.13
2022-12-15T19:55:55.743Z,30.20
2022-12-15T19:58:28.497Z,29.90
2022-12-15T20:01:01.020Z,29.50
2022-12-15T20:03:30.888Z,27.63
2022-12-15T20:06:00.620Z,27.30
2022-12-15T20:08:30.396Z,30.33
2022-12-15T20:10:58.280Z,28.70
2022-12-15T20:13:26.948Z,29.67
2022-12-15T20:15:55.147Z,28.53
2022-12-15T20:18:26.559Z,30.53
2022-12-15T20:20:55.517Z,28.07
2022-12-15T20:23:26.798Z,27.67
2022-12-15T20:25:55.798Z,29.33
2022-12-15T20:28:25.428Z,30.83
2022-12-15T20:30:53.899Z,30.27
2022-12-15T20:33:21.980Z,30.50
2022-12-15T20:35:52.070Z,28.90
2022-12-15T20:38:28.058Z,29.07
2022-12-15T20:40:57.111Z,28.50
2022-12-15T20:43:26.596Z,27.60
2022-12-15T20:46:01.573Z,29.20
2022-12-15T20:48:30.979Z,28.27
2022-12-15T20:51:03.028Z,27.77
2022-12-15T20:53:34.161Z,30.40
2022-12-15T20:56:02.347Z,29.17
2022-12-15T20:58:33.392Z,28.20
2022-12-15T21:01:01.908Z,30.77
2022-12-15T21:03:33.935Z,29.57
2022-12-15T21:06:03.437Z,29.03
2022-12-15T21:08:32.763Z,28.67
2022-12-15T21:11:05.664Z,27.60
2022-12-15T21:13:35.395Z,30.73
2022-12-15T21:16:03.521Z,29.23
2022-12-15T21:21:25.905Z,27.03
2022-12-15T21:23:54.221Z,28.33
2022-12-15T21:26:24.557Z,27.27
2022-12-15T21:28:55.699Z,28.10
2022-12-15T21:31:24.707Z,28.23
2022-12-15T21:33:52.851Z,29.20
2022-12-15T21:36:24.042Z,28.17
2022-12-15T21:38:53.225Z,28.63
2022-12-15T21:41:24.183Z,28.10
2022-12-15T21:43:52.117Z,27.67
2022-12-15T21:46:26.102Z,27.30
2022-12-15T21:49:13.312Z,26.47
2022-12-15T21:51:44.854Z,26.80
2022-12-15T21:54:18.330Z,26.40
2022-12-15T21:56:47.383Z,25.90
2022-12-15T21:59:16.768Z,28.00
2022-12-15T22:01:45.029Z,25.90
2022-12-15T22:04:18.743Z,25.83
2022-12-15T22:06:50.915Z,26.63
2022-12-15T22:09:19.612Z,26.67
2022-12-15T22:11:49.524Z,26.13
2022-12-15T22:14:24.592Z,24.77
2022-12-15T22:16:52.545Z,25.10
2022-12-15T22:19:20.833Z,25.63
2022-12-15T22:21:50.116Z,26.30
2022-12-15T22:24:17.937Z,26.50
2022-12-15T22:26:46.421Z,25.50
2022-12-15T22:29:18.073Z,26.57
2022-12-15T22:31:45.963Z,27.17
2022-12-15T22:34:15.678Z,27.37
2022-12-15T22:36:43.526Z,28.30
2022-12-15T22:39:14.763Z,27.30
2022-12-15T22:41:45.142Z,27.00
2022-12-15T22:44:18.552Z,28.07
2022-12-15T22:46:47.250Z,26.70
2022-12-15T22:49:17.015Z,26.63
2022-12-15T22:51:45.322Z,26.57
2022-12-15T22:54:20.144Z,25.27
2022-12-15T22:56:50.315Z,26.67
2022-12-15T22:59:22.063Z,26.07
2022-12-15T23:01:49.974Z,24.53
2022-12-15T23:04:18.040Z,25.80
2022-12-15T23:06:46.219Z,25.13
2022-12-15T23:09:14.035Z,26.90
2022-12-15T23:11:42.448Z,25.60
2022-12-15T23:14:14.498Z,26.53
2022-12-15T23:16:42.077Z,25.07
2022-12-15T23:19:23.373Z,27.43
2022-12-15T23:21:51.468Z,26.77
2022-12-15T23:24:19.609Z,25.20
2022-12-15T23:26:48.777Z,25.07
2022-12-15T23:29:16.712Z,27.73
2022-12-15T23:31:44.574Z,25.43
2022-12-15T23:34:12.593Z,26.03
2022-12-15T23:36:40.439Z,25.50
2022-12-15T23:39:08.239Z,27.10
2022-12-15T23:41:36.480Z,26.67
2022-12-15T23:44:05.934Z,28.67
2022-12-15T23:46:33.801Z,26.10
2022-12-15T23:49:01.683Z,24.17
2022-12-15T23:51:29.511Z,25.40
2022-12-15T23:53:57.310Z,24.90
2022-12-15T23:56:26.000Z,25.20
2022-12-15T23:58:57.196Z,27.40
